Time;durP1;ratioP1;P1;durP2;ratioP2;P2;SDS_P1;SDS_P2;PMS_P1;PMS_P2;Temp;Humidity;BMP_temperature;BMP_pressure;BME280_temperature;BME280_humidity;BME280_pressure;Samples;Min_cycle;Max_cycle;Signal;HPM_P1;HPM_P2
2022/05/20 00:00:41;;;;;;;4.58;1.98;;;;;;;12.37;60.16;101096.73;1778919;80;21307;-88
2022/05/20 00:03:08;;;;;;;6.17;2.20;;;;;;;12.32;60.21;101093.55;1778793;79;21488;-86
2022/05/20 00:05:36;;;;;;;3.35;1.95;;;;;;;12.30;60.54;101101.15;1778877;79;20916;-86
2022/05/20 00:08:04;;;;;;;2.37;1.77;;;;;;;12.26;60.48;101097.84;1778853;80;20880;-85
2022/05/20 00:10:31;;;;;;;4.53;2.35;;;;;;;12.24;60.76;101092.67;1779165;80;20883;-84
2022/05/20 00:13:00;;;;;;;6.22;1.77;;;;;;;12.21;60.91;101090.70;1778934;80;20880;-87
2022/05/20 00:15:28;;;;;;;4.95;2.95;;;;;;;12.17;61.30;101093.13;1779971;80;20935;-88
2022/05/20 00:17:55;;;;;;;5.33;1.77;;;;;;;12.13;61.00;101092.94;1779524;79;20983;-86
2022/05/20 00:20:24;;;;;;;2.62;1.50;;;;;;;12.09;60.20;101094.88;1779249;80;21382;-87
2022/05/20 00:22:51;;;;;;;5.33;2.27;;;;;;;12.05;60.55;101081.56;1778853;79;21393;-87
2022/05/20 00:28:05;;;;;;;5.37;2.15;;;;;;;11.96;61.03;101092.15;1778926;80;20955;-88
2022/05/20 00:30:31;;;;;;;4.17;1.70;;;;;;;11.89;60.96;101085.53;1778921;79;20902;-86
2022/05/20 00:32:59;;;;;;;2.50;2.27;;;;;;;11.83;61.17;101084.09;1778814;80;20947;-86
2022/05/20 00:35:26;;;;;;;6.33;2.35;;;;;;;11.76;61.18;101089.33;1778881;79;20994;-86
2022/05/20 00:37:53;;;;;;;1.22;1.10;;;;;;;11.70;61.57;101090.14;1778861;80;21232;-87
2022/05/20 00:40:22;;;;;;;3.60;1.70;;;;;;;11.62;61.28;101086.16;1779025;80;20852;-86
2022/05/20 00:42:50;;;;;;;2.92;1.90;;;;;;;11.56;61.98;101086.52;1778851;80;20860;-86
2022/05/20 00:45:17;;;;;;;3.52;1.90;;;;;;;11.52;62.36;101085.47;1778907;80;20955;-86
2022/05/20 00:47:44;;;;;;;3.33;1.80;;;;;;;11.47;62.70;101085.73;1778987;79;20940;-86
2022/05/20 00:50:15;;;;;;;2.75;2.20;;;;;;;11.45;62.69;101082.78;1778856;80;21064;-86
2022/05/20 00:52:45;;;;;;;1.65;1.40;;;;;;;11.41;63.21;101081.66;1778889;80;20903;-85
2022/05/20 00:55:16;;;;;;;4.47;2.10;;;;;;;11.39;63.56;101088.77;1778948;80;20919;-86
2022/05/20 00:58:07;;;;;;;3.42;1.65;;;;;;;11.35;63.47;101091.19;1779042;80;20931;-85
2022/05/20 01:00:38;;;;;;;2.25;1.57;;;;;;;11.32;63.56;101083.96;1778991;80;20876;-85
2022/05/20 01:03:06;;;;;;;2.52;1.72;;;;;;;11.26;63.50;101082.52;1778979;80;21953;-86
2022/05/20 01:05:45;;;;;;;2.80;1.70;;;;;;;11.22;63.74;101090.17;1778896;79;20856;-88
2022/05/20 01:08:19;;;;;;;2.22;1.92;;;;;;;11.17;63.67;101093.05;1734685;82;20924;-87
2022/05/20 01:10:47;;;;;;;5.63;2.27;;;;;;;11.12;63.76;101089.00;1734876;82;20941;-86
2022/05/20 01:13:18;;;;;;;2.70;2.05;;;;;;;11.07;63.39;101096.25;1734858;82;22199;-87
2022/05/20 01:15:47;;;;;;;5.25;2.72;;;;;;;11.02;62.55;101100.91;1734534;82;20965;-86
2022/05/20 01:18:13;;;;;;;11.83;3.02;;;;;;;10.97;62.34;101098.07;1734659;82;20946;-86
2022/05/20 01:20:43;;;;;;;7.30;4.15;;;;;;;10.94;61.84;101098.72;1713325;82;20937;-87
2022/05/20 01:23:22;;;;;;;7.42;3.60;;;;;;;10.89;61.50;101096.78;1739448;81;20904;-85
2022/05/20 01:25:51;;;;;;;8.30;4.05;;;;;;;10.86;61.50;101096.49;1739734;82;20916;-87
2022/05/20 01:28:22;;;;;;;6.80;3.67;;;;;;;10.84;61.25;101108.84;1739578;82;21280;-86
2022/05/20 01:30:55;;;;;;;8.05;3.85;;;;;;;10.83;61.20;101106.29;1739418;82;21511;-86
2022/05/20 01:33:30;;;;;;;7.30;3.30;;;;;;;10.82;61.41;101106.77;1740470;82;21027;-86
2022/05/20 01:35:56;;;;;;;6.08;3.20;;;;;;;10.83;61.56;101107.60;1740038;82;21518;-86
2022/05/20 01:38:23;;;;;;;7.53;3.55;;;;;;;10.85;61.73;101105.75;1750147;80;20868;-86
2022/05/20 01:40:58;;;;;;;6.03;3.27;;;;;;;10.88;62.07;101109.54;1789593;77;21260;-86
2022/05/20 01:43:49;;;;;;;5.15;2.92;;;;;;;10.91;62.38;101113.30;1783029;79;21571;-86
2022/05/20 01:46:42;;;;;;;5.72;2.65;;;;;;;10.92;62.58;101110.60;1787672;80;20997;-87
2022/05/20 01:49:52;;;;;;;5.05;3.05;;;;;;;10.96;62.89;101109.95;1787150;79;20911;-86
2022/05/20 01:52:35;;;;;;;3.95;3.22;;;;;;;10.96;63.28;101110.83;1787091;79;20892;-86
2022/05/20 01:55:16;;;;;;;6.60;3.42;;;;;;;10.95;63.52;101112.20;1786895;79;21300;-86
2022/05/20 01:58:05;;;;;;;5.50;3.02;;;;;;;10.93;63.54;101112.75;1786787;80;21021;-87
2022/05/20 02:00:34;;;;;;;4.90;2.83;;;;;;;10.91;63.78;101111.98;1786944;80;20880;-87
2022/05/20 02:03:12;;;;;;;9.90;3.50;;;;;;;10.87;63.79;101112.63;1786971;80;20887;-87
2022/05/20 02:05:55;;;;;;;5.22;3.20;;;;;;;10.85;63.90;101109.68;1786965;79;20950;-86
2022/05/20 02:08:39;;;;;;;9.48;4.87;;;;;;;10.84;64.11;101111.47;1786348;80;21264;-86
2022/05/20 02:11:13;;;;;;;;;;;;;;;10.82;64.18;101105.45;1789501;80;21396;-86
2022/05/20 02:13:51;;;;;;;9.30;4.50;;;;;;;10.83;64.18;101111.54;1787154;80;20094;-86
2022/05/20 02:16:23;;;;;;;9.33;5.00;;;;;;;10.85;64.24;101110.55;1786861;79;20927;-86
2022/05/20 02:19:11;;;;;;;10.45;6.37;;;;;;;10.88;63.93;101109.54;1758723;80;20876;-86
2022/05/20 02:21:41;;;;;;;13.58;6.33;;;;;;;10.91;63.90;101108.05;1786667;80;21204;-86
2022/05/20 02:24:12;;;;;;;15.18;7.15;;;;;;;10.95;63.99;101114.83;1773033;80;21069;-86
2022/05/20 02:26:44;;;;;;;12.50;5.72;;;;;;;10.99;64.26;101115.06;1774863;79;20967;-86
2022/05/20 02:29:15;;;;;;;13.32;6.50;;;;;;;11.02;63.97;101114.87;1773894;81;21397;-85
2022/05/20 02:32:03;;;;;;;12.65;6.12;;;;;;;11.03;63.89;101114.41;1773348;80;20876;-85
2022/05/20 02:34:32;;;;;;;10.90;5.75;;;;;;;11.05;63.86;101114.73;1774647;80;21192;-86
2022/05/20 02:36:58;;;;;;;6.67;5.33;;;;;;;11.03;63.87;101117.91;1775024;80;20881;-85
2022/05/20 02:39:25;;;;;;;14.68;5.95;;;;;;;11.02;64.16;101114.04;1774460;79;21517;-83
2022/05/20 02:41:51;;;;;;;10.68;5.30;;;;;;;11.01;64.40;101118.92;1774059;81;20837;-84
2022/05/20 02:44:18;;;;;;;11.08;5.20;;;;;;;11.00;64.90;101116.73;1703490;81;20872;-85
2022/05/20 02:46:48;;;;;;;10.85;5.12;;;;;;;10.98;65.13;101120.78;1773409;80;21865;-85
2022/05/20 02:49:15;;;;;;;8.45;3.98;;;;;;;10.97;65.28;101124.31;1773411;80;20971;-85
2022/05/20 02:51:43;;;;;;;10.23;5.50;;;;;;;10.96;65.73;101124.39;1773471;80;20907;-86
2022/05/20 02:54:09;;;;;;;11.80;5.58;;;;;;;10.94;65.77;101118.41;1772939;81;20920;-85
2022/05/20 02:56:38;;;;;;;13.30;6.78;;;;;;;10.93;65.69;101125.88;1773364;81;20904;-83
2022/05/20 03:04:35;;;;;;;8.75;5.70;;;;;;;10.98;65.68;101127.34;1773184;79;20960;-86
2022/05/20 03:07:03;;;;;;;14.75;6.45;;;;;;;11.03;65.59;101123.16;1772884;81;20848;-84
2022/05/20 03:09:31;;;;;;;10.58;6.15;;;;;;;11.08;65.49;101122.43;1772939;79;21385;-84
2022/05/20 03:11:58;;;;;;;9.80;5.72;;;;;;;11.13;65.13;101121.70;1773325;81;22008;-85
2022/05/20 03:14:26;;;;;;;9.68;5.17;;;;;;;11.18;64.79;101121.02;1773138;81;20924;-86
2022/05/20 03:16:53;;;;;;;11.28;5.45;;;;;;;11.24;64.45;101123.75;1773222;80;20884;-85
2022/05/20 03:19:20;;;;;;;22.37;15.88;;;;;;;11.29;64.10;101112.99;1772997;79;20888;-86
2022/05/20 03:21:47;;;;;;;20.02;12.70;;;;;;;11.34;63.95;101117.55;1772936;79;20920;-85
2022/05/20 03:24:16;;;;;;;19.05;12.80;;;;;;;11.38;63.73;101119.92;1768635;80;21176;-86
2022/05/20 03:26:43;;;;;;;15.18;8.88;;;;;;;11.44;63.53;101122.66;1768699;81;20864;-86
2022/05/20 03:29:11;;;;;;;11.75;5.85;;;;;;;11.48;63.42;101124.18;1768573;81;20884;-86
2022/05/20 03:31:38;;;;;;;17.48;6.17;;;;;;;11.54;62.99;101126.95;1769389;81;20955;-85
2022/05/20 03:34:05;;;;;;;9.38;4.67;;;;;;;11.59;62.70;101127.53;1770851;81;20900;-85
2022/05/20 03:36:39;;;;;;;15.88;6.50;;;;;;;11.66;62.42;101134.59;1768957;81;21182;-84
2022/05/20 03:39:14;;;;;;;11.20;5.33;;;;;;;11.72;61.95;101130.31;1767371;81;20956;-87
2022/05/20 03:41:53;;;;;;;9.98;4.78;;;;;;;11.80;61.61;101133.34;1770448;81;20865;-87
2022/05/20 03:44:25;;;;;;;15.03;4.42;;;;;;;11.90;61.18;101132.40;1764396;81;20896;-85
2022/05/20 03:46:54;;;;;;;9.88;4.95;;;;;;;11.99;61.02;101126.61;1769262;81;20884;-86
2022/05/20 03:49:23;;;;;;;8.80;5.42;;;;;;;12.08;60.55;101130.48;1768926;81;21853;-85
2022/05/20 03:51:51;;;;;;;13.72;4.70;;;;;;;12.15;60.28;101131.34;1768773;81;20884;-85
2022/05/20 03:54:21;;;;;;;7.37;4.17;;;;;;;12.25;60.16;101142.19;1768976;81;20928;-84
2022/05/20 03:56:48;;;;;;;6.70;4.40;;;;;;;12.33;59.68;101141.72;1768823;81;20888;-85
2022/05/20 03:59:15;;;;;;;9.05;4.08;;;;;;;12.43;59.52;101136.30;1768906;80;21281;-86
2022/05/20 04:01:57;;;;;;;7.70;4.50;;;;;;;12.52;59.42;101140.17;1769107;81;21213;-86
2022/05/20 04:04:31;;;;;;;8.43;3.58;;;;;;;12.61;58.51;101137.83;1768813;81;20890;-86
2022/05/20 04:07:01;;;;;;;8.55;3.87;;;;;;;12.73;57.62;101136.70;1768943;81;21397;-86
2022/05/20 04:09:29;;;;;;;7.03;3.40;;;;;;;12.92;56.87;101144.34;1768655;81;21077;-84
2022/05/20 04:11:59;;;;;;;3.60;2.95;;;;;;;13.16;56.55;101147.21;1769117;81;20971;-84
2022/05/20 04:14:27;;;;;;;5.92;2.98;;;;;;;13.43;55.88;101153.43;1769075;81;21441;-86
2022/05/20 04:16:57;;;;;;;7.58;2.85;;;;;;;13.91;55.21;101152.98;1769258;81;20900;-87
2022/05/20 04:19:25;;;;;;;4.90;2.67;;;;;;;14.59;53.30;101158.59;1768798;81;20967;-87
2022/05/20 04:21:59;;;;;;;6.20;2.20;;;;;;;15.29;51.36;101148.84;1768717;81;21350;-86
2022/05/20 04:24:26;;;;;;;5.72;3.15;;;;;;;15.99;49.12;101157.11;1753578;80;20939;-85
2022/05/20 04:26:53;;;;;;;6.35;2.45;;;;;;;16.65;47.71;101152.96;1779201;80;21205;-84
2022/05/20 04:29:20;;;;;;;4.90;2.58;;;;;;;17.24;45.86;101151.91;1779146;80;20904;-85
2022/05/20 04:31:49;;;;;;;6.70;2.55;;;;;;;17.85;44.24;101153.23;1779115;80;21464;-86
2022/05/20 04:34:17;;;;;;;5.30;2.50;;;;;;;18.41;42.80;101152.50;1779325;80;21424;-87
2022/05/20 04:36:46;;;;;;;4.10;2.30;;;;;;;18.94;42.08;101158.67;1779817;80;21126;-86
2022/05/20 04:39:13;;;;;;;3.45;1.87;;;;;;;19.44;40.86;101160.05;1782326;80;21149;-85
2022/05/20 04:47:23;;;;;;;3.87;2.02;;;;;;;20.94;38.09;101156.55;1779114;80;21002;-86
2022/05/20 04:49:50;;;;;;;3.80;1.70;;;;;;;21.40;36.13;101158.28;1779230;80;20971;-88
2022/05/20 04:52:17;;;;;;;5.70;3.12;;;;;;;21.67;35.76;101155.27;1779397;80;21064;-87
2022/05/20 04:54:51;;;;;;;3.50;2.12;;;;;;;21.79;34.44;101159.88;1781499;80;20864;-87
2022/05/20 04:57:31;;;;;;;4.60;2.30;;;;;;;22.02;34.79;101163.78;1781819;80;21389;-86
2022/05/20 05:00:08;;;;;;;4.55;2.10;;;;;;;22.31;33.94;101162.71;1779620;80;20872;-86
2022/05/20 05:02:37;;;;;;;3.12;1.80;;;;;;;22.66;33.76;101167.13;1779049;80;21413;-86
2022/05/20 05:05:07;;;;;;;4.87;2.05;;;;;;;23.04;33.38;101162.35;1779367;80;21958;-87
2022/05/20 05:07:38;;;;;;;5.05;1.60;;;;;;;23.31;32.25;101157.77;1778995;80;20872;-86
2022/05/20 05:10:06;;;;;;;4.92;1.65;;;;;;;23.57;31.06;101155.84;1778984;80;20959;-86
2022/05/20 05:12:33;;;;;;;4.78;2.08;;;;;;;23.77;30.87;101151.05;1779606;80;20884;-87
2022/05/20 05:15:00;;;;;;;3.95;1.77;;;;;;;24.02;31.03;101155.59;1779129;80;20927;-87
2022/05/20 05:20:18;;;;;;;3.22;1.87;;;;;;;24.61;30.09;101151.72;1779537;80;20829;-86
2022/05/20 05:22:45;;;;;;;5.17;1.70;;;;;;;24.97;29.57;101151.27;1778745;80;21560;-86
2022/05/20 05:25:14;;;;;;;2.75;1.47;;;;;;;25.22;28.60;101154.71;1773453;81;21414;-88
2022/05/20 05:27:41;;;;;;;4.00;1.30;;;;;;;25.33;27.93;101154.00;1773645;79;20904;-85
2022/05/20 05:30:11;;;;;;;3.98;1.50;;;;;;;25.36;27.91;101151.78;1773169;80;21154;-87
2022/05/20 05:32:39;;;;;;;3.67;1.52;;;;;;;25.32;27.49;101150.45;1773203;79;20880;-87
2022/05/20 05:35:13;;;;;;;5.08;1.85;;;;;;;25.17;27.79;101156.23;1773259;81;20967;-87
2022/05/20 05:37:41;;;;;;;4.10;1.30;;;;;;;25.04;28.01;101158.13;1773299;81;20884;-87
2022/05/20 05:40:10;;;;;;;5.67;1.90;;;;;;;25.14;27.50;101160.59;1773420;79;20896;-87
2022/05/20 05:42:37;;;;;;;2.55;1.47;;;;;;;25.12;27.83;101162.09;1775086;77;21230;-86
2022/05/20 05:45:05;;;;;;;4.15;1.72;;;;;;;25.19;27.67;101156.89;1774868;80;20848;-87
2022/05/20 05:47:32;;;;;;;3.85;2.15;;;;;;;25.22;27.95;101162.77;1773873;81;20880;-87
2022/05/20 05:49:59;;;;;;;23.27;3.55;;;;;;;25.27;27.77;101154.19;1773233;79;20952;-89
2022/05/20 05:52:26;;;;;;;4.33;1.60;;;;;;;25.38;27.89;101158.33;1773404;81;20979;-88
2022/05/20 05:54:53;;;;;;;5.20;1.77;;;;;;;25.60;28.11;101158.03;1776229;78;21306;-88
2022/05/20 05:57:20;;;;;;;2.15;1.57;;;;;;;25.68;28.42;101152.62;1775697;80;21385;-86
2022/05/20 05:59:47;;;;;;;5.15;2.02;;;;;;;25.89;27.28;101156.53;1775194;79;20924;-88
2022/05/20 06:02:14;;;;;;;4.42;2.70;;;;;;;26.10;26.79;101154.02;1775343;79;20934;-87
2022/05/20 06:04:42;;;;;;;5.42;2.50;;;;;;;26.29;26.07;101150.48;1773443;79;20904;-88
2022/05/20 06:07:10;;;;;;;3.15;2.15;;;;;;;26.38;25.93;101152.06;1773685;79;21283;-88
2022/05/20 06:09:37;;;;;;;2.12;1.25;;;;;;;26.50;26.54;101153.80;1773621;79;20971;-85
2022/05/20 06:12:05;;;;;;;3.37;1.50;;;;;;;26.74;26.09;101152.73;1774055;81;20916;-87
2022/05/20 06:14:36;;;;;;;7.62;1.65;;;;;;;26.95;26.50;101152.83;1752409;81;20881;-88
2022/05/20 06:17:05;;;;;;;3.47;1.82;;;;;;;27.25;26.46;101152.81;1773887;80;20861;-90
2022/05/20 06:19:36;;;;;;;4.40;1.27;;;;;;;27.55;25.54;101144.66;1773115;80;21150;-89
2022/05/20 06:22:06;;;;;;;2.05;1.25;;;;;;;27.84;25.95;101146.41;1773987;80;21327;-89
2022/05/20 06:24:32;;;;;;;13.68;1.55;;;;;;;28.15;25.90;101147.92;1774064;80;20837;-90
2022/05/20 06:27:02;;;;;;;3.00;1.40;;;;;;;28.41;24.78;101146.78;1774201;80;20919;-90
2022/05/20 06:29:29;;;;;;;5.28;1.25;;;;;;;28.59;23.95;101149.52;1775527;80;20920;-90
2022/05/20 06:31:56;;;;;;;3.30;1.30;;;;;;;28.78;24.42;101152.04;1774196;80;21117;-89
2022/05/20 06:34:23;;;;;;;3.77;1.70;;;;;;;29.04;23.91;101152.17;1773981;81;20877;-90
2022/05/20 06:39:49;;;;;;;1.98;1.07;;;;;;;29.54;23.60;101146.53;1773599;81;20924;-91
2022/05/20 06:42:19;;;;;;;3.67;1.37;;;;;;;29.80;23.50;101143.61;1774059;79;20911;-90
2022/05/20 06:44:47;;;;;;;2.37;1.30;;;;;;;30.02;23.10;101157.25;1774040;79;21574;-92
2022/05/20 06:47:14;;;;;;;3.27;1.37;;;;;;;30.01;22.70;101150.69;1774668;80;20868;-88
2022/05/20 06:49:43;;;;;;;3.15;1.25;;;;;;;30.09;22.93;101151.31;1775099;79;20983;-90
2022/05/20 06:52:12;;;;;;;5.33;1.85;;;;;;;30.23;23.09;101148.08;1774120;80;20960;-89
2022/05/20 06:54:43;;;;;;;4.45;1.45;;;;;;;30.42;23.13;101151.84;1773761;80;20971;-88
2022/05/20 06:57:10;;;;;;;4.08;1.12;;;;;;;30.58;22.67;101157.34;1773525;80;21259;-89
2022/05/20 06:59:38;;;;;;;4.97;1.15;;;;;;;30.70;22.17;101150.73;1773384;81;20931;-88
2022/05/20 07:02:08;;;;;;;1.40;1.20;;;;;;;30.80;22.43;101157.91;1773564;79;20924;-87
2022/05/20 07:04:34;;;;;;;10.38;1.15;;;;;;;30.82;21.20;101159.06;1774021;81;20975;-87
2022/05/20 07:07:04;;;;;;;5.47;1.72;;;;;;;30.85;21.60;101157.27;1773464;81;20955;-88
2022/05/20 07:09:32;;;;;;;3.45;1.67;;;;;;;30.96;21.70;101149.86;1774116;81;21256;-90
2022/05/20 07:12:00;;;;;;;5.85;1.70;;;;;;;31.13;21.95;101146.98;1773064;80;20947;-90
2022/05/20 07:14:31;;;;;;;3.02;1.52;;;;;;;31.31;22.11;101147.62;1752244;81;20935;-90
2022/05/20 07:16:58;;;;;;;5.35;1.55;;;;;;;31.45;22.06;101152.47;1773820;81;20991;-91
2022/05/20 07:19:27;;;;;;;2.98;2.08;;;;;;;31.60;22.00;101146.76;1727956;81;20955;-90
2022/05/20 07:21:54;;;;;;;4.45;2.00;;;;;;;31.74;21.24;101136.64;1773758;81;21145;-89
2022/05/20 07:24:22;;;;;;;2.15;1.42;;;;;;;31.69;20.79;101141.91;1773578;80;20880;-88
2022/05/20 07:26:50;;;;;;;3.10;1.52;;;;;;;31.57;20.74;101148.03;1774101;80;20885;-89
2022/05/20 07:29:17;;;;;;;2.30;1.37;;;;;;;31.55;21.24;101143.34;1773415;81;20880;-89
2022/05/20 07:31:46;;;;;;;4.35;1.32;;;;;;;31.62;21.24;101143.80;1773944;79;20873;-88
2022/05/20 07:34:14;;;;;;;3.22;1.52;;;;;;;31.76;20.81;101142.14;1773691;79;21170;-89
2022/05/20 07:38:50;;;;;;;5.62;1.27;;;;;;;32.03;19.88;101137.90;1855047;76;23310;-89
2022/05/20 07:41:19;;;;;;;4.67;1.72;;;;;;;31.92;19.35;101135.34;1822986;78;20966;-89
2022/05/20 07:43:48;;;;;;;4.83;1.40;;;;;;;31.91;19.51;101141.02;1822736;78;22042;-89
2022/05/20 07:46:17;;;;;;;2.08;0.90;;;;;;;31.96;19.06;101137.92;1822861;78;20986;-91
2022/05/20 07:48:44;;;;;;;2.77;1.02;;;;;;;31.96;18.54;101142.52;1822974;78;20884;-90
2022/05/20 07:51:15;;;;;;;2.27;0.80;;;;;;;31.98;18.64;101146.70;1823563;78;20895;-90
2022/05/20 07:53:48;;;;;;;6.78;1.15;;;;;;;31.98;18.52;101144.53;1819420;77;20836;-90
2022/05/20 07:56:22;;;;;;;4.40;0.95;;;;;;;31.97;18.31;101143.70;1825122;77;21288;-89
2022/05/20 07:59:02;;;;;;;5.65;1.40;;;;;;;32.00;19.02;101146.50;1825414;78;21387;-90
2022/05/20 08:01:29;;;;;;;4.53;1.25;;;;;;;32.07;18.37;101145.91;1821814;78;21002;-91
2022/05/20 08:06:48;;;;;;;1.75;1.05;;;;;;;32.15;18.28;101143.42;1823542;78;20966;-91
2022/05/20 08:09:17;;;;;;;3.70;0.82;;;;;;;32.23;17.92;101145.04;1823878;78;20982;-90
2022/05/20 08:11:46;;;;;;;2.37;1.02;;;;;;;32.28;17.71;101143.84;1823158;78;20899;-91
2022/05/20 08:14:12;;;;;;;1.92;1.05;;;;;;;32.29;17.68;101142.80;1823630;78;20918;-92
2022/05/20 08:16:40;;;;;;;4.37;1.22;;;;;;;32.35;17.62;101143.23;1824296;78;21010;-90
2022/05/20 08:19:07;;;;;;;1.90;1.10;;;;;;;32.40;17.82;101137.98;1824559;78;20970;-90
2022/05/20 08:21:34;;;;;;;1.10;0.82;;;;;;;32.48;17.67;101143.11;1823752;78;21383;-90
2022/05/20 08:24:01;;;;;;;3.77;0.60;;;;;;;32.60;18.27;101139.17;1823068;78;20978;-90
2022/05/20 08:26:28;;;;;;;2.08;1.10;;;;;;;32.76;17.56;101137.73;1822872;78;20974;-89
2022/05/20 08:28:55;;;;;;;7.37;0.78;;;;;;;32.80;17.50;101135.69;1823122;78;21416;-93
2022/05/20 08:31:22;;;;;;;2.52;0.80;;;;;;;32.86;17.95;101129.04;1823232;78;21010;-89
2022/05/20 08:33:51;;;;;;;8.10;1.75;;;;;;;32.88;18.03;101123.67;1823139;78;21239;-88
2022/05/20 08:36:19;;;;;;;8.23;1.45;;;;;;;32.85;17.44;101126.03;1822905;78;21450;-88
2022/05/20 08:38:47;;;;;;;4.95;1.15;;;;;;;32.74;17.21;101131.16;1825461;78;20862;-89
2022/05/20 08:41:31;;;;;;;14.13;2.15;;;;;;;32.67;17.46;101135.02;1826113;78;20852;-87
2022/05/20 08:43:59;;;;;;;3.27;1.67;;;;;;;32.56;16.81;101137.42;1826555;78;21416;-87
2022/05/20 08:46:26;;;;;;;1.77;1.05;;;;;;;32.35;17.46;101127.80;1825971;78;21161;-90
2022/05/20 08:48:55;;;;;;;3.47;1.32;;;;;;;32.30;17.49;101129.52;1825776;78;20887;-90
2022/05/20 08:51:26;;;;;;;2.08;1.17;;;;;;;32.27;18.55;101129.44;1825711;78;20840;-89
2022/05/20 08:53:53;;;;;;;2.27;0.82;;;;;;;31.98;18.63;101134.50;1826074;78;20872;-89
2022/05/20 08:56:23;;;;;;;3.08;0.93;;;;;;;31.58;18.60;101135.30;1825356;78;20852;-89
2022/05/20 08:59:00;;;;;;;2.22;1.30;;;;;;;31.06;18.49;101127.72;1825838;78;21340;-90
2022/05/20 09:01:37;;;;;;;1.30;0.98;;;;;;;30.52;18.04;101132.45;1827948;78;20867;-87
2022/05/20 09:04:07;;;;;;;2.90;1.07;;;;;;;30.01;19.18;101127.69;1827783;78;20982;-88
2022/05/20 09:06:57;;;;;;;1.15;0.70;;;;;;;29.59;19.88;101125.13;1826225;78;20958;-87
2022/05/20 09:09:52;;;;;;;5.12;1.22;;;;;;;29.40;19.50;101125.94;1800899;78;20951;-87
2022/05/20 09:12:38;;;;;;;1.32;0.82;;;;;;;29.12;20.51;101129.05;1825528;78;21229;-88
2022/05/20 09:18:32;;;;;;;2.83;0.85;;;;;;;29.33;21.02;101117.28;1828065;77;20856;-89
2022/05/20 09:20:59;;;;;;;4.92;1.10;;;;;;;29.65;20.76;101123.48;1827854;78;20916;-88
2022/05/20 09:23:28;;;;;;;1.77;1.10;;;;;;;30.00;20.32;101121.98;1827173;78;20899;-91
2022/05/20 09:26:11;;;;;;;3.47;1.12;;;;;;;30.30;20.21;101120.52;1825801;78;21259;-88
2022/05/20 09:28:47;;;;;;;1.57;1.32;;;;;;;30.58;20.36;101122.97;1825506;78;20884;-87
2022/05/20 09:31:36;;;;;;;2.58;0.60;;;;;;;30.73;19.80;101122.72;1825982;78;20880;-91
2022/05/20 09:34:19;;;;;;;1.98;1.17;;;;;;;30.89;20.08;101117.91;1822490;78;20974;-92
2022/05/20 09:37:00;;;;;;;2.10;1.60;;;;;;;31.00;19.86;101119.95;1826473;78;20919;-87
2022/05/20 09:39:34;;;;;;;4.72;1.35;;;;;;;31.12;19.35;101113.31;1825973;78;21311;-89
2022/05/20 09:42:14;;;;;;;4.08;0.90;;;;;;;31.17;19.69;101110.78;1825732;78;20923;-88
2022/05/20 09:44:45;;;;;;;2.58;0.85;;;;;;;31.17;19.83;101106.22;1826139;78;20970;-89
2022/05/20 09:47:41;;;;;;;3.33;1.07;;;;;;;31.16;20.34;101107.78;1825608;78;20896;-88
2022/05/20 09:50:33;;;;;;;5.87;1.00;;;;;;;31.27;20.21;101115.75;1825816;78;20958;-88
2022/05/20 09:53:14;;;;;;;3.80;1.62;;;;;;;31.31;20.02;101108.32;1825984;78;21060;-88
2022/05/20 09:55:45;;;;;;;5.05;1.57;;;;;;;31.38;20.20;101098.79;1826671;78;21346;-88
2022/05/20 09:58:28;;;;;;;10.45;1.02;;;;;;;31.46;19.74;101111.27;1827275;78;20899;-87
2022/05/20 10:01:00;;;;;;;3.10;1.30;;;;;;;31.45;19.33;101102.31;1827046;78;21069;-88
2022/05/20 10:03:53;;;;;;;2.75;0.95;;;;;;;31.39;20.13;101097.73;1826869;78;20923;-90
2022/05/20 10:06:24;;;;;;;;;;;;;;;31.44;21.18;101093.89;1829852;78;21142;-92
2022/05/20 10:09:14;;;;;;;4.72;1.60;;;;;;;31.44;20.20;101095.25;1827077;78;20105;-88
2022/05/20 10:12:05;;;;;;;2.98;1.05;;;;;;;31.42;19.70;101103.30;1828366;77;21337;-88
2022/05/20 10:14:44;;;;;;;3.80;1.12;;;;;;;31.37;20.13;101094.41;1827668;78;20978;-88
2022/05/20 10:17:25;;;;;;;2.27;1.20;;;;;;;31.38;21.45;101094.73;1827120;78;21014;-91
2022/05/20 10:20:18;;;;;;;2.30;1.30;;;;;;;31.58;21.30;101093.27;1826381;78;21167;-87
2022/05/20 10:23:02;;;;;;;2.15;1.00;;;;;;;31.77;20.54;101090.08;1826706;78;21010;-87
2022/05/20 10:25:55;;;;;;;3.58;1.10;;;;;;;31.85;20.89;101086.28;1826854;78;20954;-87
2022/05/20 10:34:43;;;;;;;4.80;1.57;;;;;;;31.82;20.61;101083.48;1826701;78;21278;-87
2022/05/20 10:37:58;;;;;;;1.77;0.70;;;;;;;31.82;20.29;101084.84;1826649;78;20836;-89
2022/05/20 10:48:34;;;;;;;2.72;0.98;;;;;;;31.72;20.05;101085.85;1651773;87;21435;-89
2022/05/20 10:49:12;;;;;;;3.35;1.40;;;;;;;31.44;20.10;101074.06;1690995;85;21234;-88
2022/05/20 10:52:16;;;;;;;0.82;0.70;;;;;;;31.46;20.27;101067.90;1601727;88;20931;-88
2022/05/20 10:55:11;;;;;;;3.70;0.85;;;;;;;31.58;20.24;101068.86;1602419;88;21020;-89
2022/05/20 10:58:02;;;;;;;6.35;1.00;;;;;;;31.68;19.75;101071.89;1601610;89;20976;-89
2022/05/20 11:00:45;;;;;;;5.58;1.37;;;;;;;31.59;19.79;101071.36;1601617;88;20939;-88
2022/05/20 11:03:24;;;;;;;6.85;1.12;;;;;;;31.22;20.02;101063.56;1601453;88;21910;-89
2022/05/20 11:06:20;;;;;;;1.90;1.07;;;;;;;30.99;20.84;101057.31;1601614;88;20971;-89
2022/05/20 11:09:04;;;;;;;5.37;1.20;;;;;;;31.12;21.27;101061.30;1602363;88;20931;-87
2022/05/20 11:11:39;;;;;;;3.42;1.42;;;;;;;31.19;21.27;101056.70;1602747;88;20944;-87
2022/05/20 11:14:35;;;;;;;2.55;1.12;;;;;;;31.13;20.93;101052.67;1602549;88;21015;-87
2022/05/20 11:17:43;;;;;;;5.10;1.20;;;;;;;31.02;20.58;101050.13;1603026;88;21267;-85
2022/05/20 11:20:54;;;;;;;7.42;0.95;;;;;;;30.76;20.33;101048.34;1604046;88;20929;-88
2022/05/20 11:24:39;;;;;;;;;;;;;;;;;;;;;
2022/05/20 11:27:17;;;;;;;4.45;1.32;;;;;;;30.25;21.83;101046.41;1608225;89;20992;-89
2022/05/20 11:30:30;;;;;;;1.52;1.20;;;;;;;30.16;22.13;101033.09;1706518;82;20989;-88
2022/05/20 11:33:09;;;;;;;10.28;1.12;;;;;;;30.02;22.77;101036.05;1712060;84;21131;-89
2022/05/20 11:35:50;;;;;;;2.50;0.80;;;;;;;29.79;22.18;101035.95;1711259;83;21408;-89
2022/05/20 11:38:35;;;;;;;5.17;1.17;;;;;;;29.49;22.36;101024.70;1710569;84;20953;-90
2022/05/20 11:41:43;;;;;;;4.40;1.87;;;;;;;29.12;22.94;101028.28;1709592;84;21060;-87
2022/05/20 11:44:24;;;;;;;3.15;1.15;;;;;;;28.78;23.92;101028.69;1709191;83;21571;-88
2022/05/20 11:47:09;;;;;;;4.03;1.50;;;;;;;28.39;23.75;101023.91;1709012;84;21024;-89
2022/05/20 11:50:04;;;;;;;4.20;1.00;;;;;;;28.01;24.79;101021.61;1709911;84;21404;-89
2022/05/20 11:52:51;;;;;;;1.60;1.10;;;;;;;27.79;26.07;101022.14;1709786;84;20966;-88
2022/05/20 11:55:29;;;;;;;3.40;1.70;;;;;;;27.60;25.77;101019.09;1709808;84;21408;-89
2022/05/20 11:58:10;;;;;;;3.87;1.30;;;;;;;27.39;26.67;101023.15;1710238;84;20847;-88
2022/05/20 12:00:39;;;;;;;3.98;1.40;;;;;;;27.06;26.74;101015.05;1710105;82;21928;-88
2022/05/20 12:03:13;;;;;;;3.08;1.90;;;;;;;26.79;27.43;101012.57;1710193;82;21040;-89
2022/05/20 12:05:44;;;;;;;4.25;1.85;;;;;;;26.58;27.33;101006.61;1709971;82;21020;-87
2022/05/20 12:08:45;;;;;;;5.55;1.50;;;;;;;26.40;27.92;101004.80;1709843;84;20934;-87
2022/05/20 12:11:35;;;;;;;5.78;1.65;;;;;;;26.25;28.32;101004.28;1709935;82;21032;-85
2022/05/20 12:14:08;;;;;;;3.47;1.60;;;;;;;26.05;28.55;100995.11;1709733;84;21194;-88
2022/05/20 12:17:00;;;;;;;3.47;1.20;;;;;;;25.85;29.46;100991.57;1709840;82;20993;-88
2022/05/20 12:25:33;;;;;;;3.05;1.42;;;;;;;25.56;30.04;100991.02;1709310;82;21009;-87
2022/05/20 12:28:24;;;;;;;7.05;1.42;;;;;;;25.44;30.36;100982.56;1706360;83;21230;-88
2022/05/20 12:31:19;;;;;;;5.80;1.92;;;;;;;25.33;30.55;100979.48;1696458;84;20911;-88
2022/05/20 12:34:00;;;;;;;2.42;1.27;;;;;;;25.20;30.36;100982.24;1703988;83;20910;-88
2022/05/20 12:36:35;;;;;;;3.25;1.50;;;;;;;25.09;31.31;100975.92;1703467;83;20906;-89
2022/05/20 12:39:13;;;;;;;3.62;1.17;;;;;;;25.05;31.67;100977.80;1703388;83;21033;-88
2022/05/20 12:41:46;;;;;;;2.70;1.90;;;;;;;25.03;31.29;100973.94;1703355;83;21091;-88
2022/05/20 12:44:22;;;;;;;3.92;1.07;;;;;;;24.95;30.99;100972.16;1703382;83;20954;-86